Time;durP1;ratioP1;P1;durP2;ratioP2;P2;SDS_P1;SDS_P2;PMS_P1;PMS_P2;Temp;Humidity;BMP_temperature;BMP_pressure;BME280_temperature;BME280_humidity;BME280_pressure;Samples;Min_cycle;Max_cycle;Signal;HPM_P1;HPM_P2
2021/12/22 00:01:24;;;;;;;22.53;15.37;;;-0.60;99.90;;;;;;5056567;28;20200;-75
2021/12/22 00:03:50;;;;;;;19.17;13.93;;;-0.50;99.90;;;;;;5035839;28;20234;-74
2021/12/22 00:06:20;;;;;;;22.00;16.30;;;-0.60;99.90;;;;;;5057061;28;20176;-75
2021/12/22 00:08:46;;;;;;;36.80;20.77;;;-0.60;99.90;;;;;;5038607;28;20616;-75
2021/12/22 00:11:11;;;;;;;51.60;26.03;;;-0.70;99.90;;;;;;5056399;28;20223;-74
2021/12/22 00:13:37;;;;;;;23.70;15.63;;;-0.60;99.90;;;;;;5056617;28;20667;-74
2021/12/22 00:16:03;;;;;;;23.07;16.13;;;-0.70;99.90;;;;;;5056180;28;20242;-74
2021/12/22 00:18:29;;;;;;;21.33;15.60;;;-0.70;99.90;;;;;;5056346;28;20311;-74
2021/12/22 00:20:54;;;;;;;25.80;15.60;;;-0.70;99.90;;;;;;5056085;28;20192;-75
2021/12/22 00:23:20;;;;;;;29.43;18.77;;;-0.70;99.90;;;;;;5046797;28;20744;-74
2021/12/22 00:25:46;;;;;;;25.17;16.43;;;-0.70;99.90;;;;;;5036055;28;20189;-74
2021/12/22 00:28:12;;;;;;;22.03;16.00;;;-0.70;99.90;;;;;;5036102;28;20700;-74
2021/12/22 00:30:39;;;;;;;26.70;17.17;;;-0.60;99.90;;;;;;5035946;28;20197;-74
2021/12/22 00:33:06;;;;;;;19.77;14.77;;;-0.50;99.90;;;;;;5035925;28;20176;-75
2021/12/22 00:35:43;;;;;;;21.07;15.40;;;-0.60;99.90;;;;;;5036389;28;20169;-73
2021/12/22 00:38:12;;;;;;;45.90;27.93;;;-0.60;99.90;;;;;;5036003;28;20215;-75
2021/12/22 00:40:39;;;;;;;21.33;15.23;;;-0.70;99.90;;;;;;5035766;28;20225;-74
2021/12/22 00:43:05;;;;;;;21.50;15.27;;;-0.70;99.90;;;;;;5018143;28;20182;-75
2021/12/22 00:45:33;;;;;;;23.97;16.10;;;-0.70;99.90;;;;;;5018531;28;20208;-75
2021/12/22 00:47:59;;;;;;;22.73;15.13;;;-0.70;99.90;;;;;;5035545;28;20250;-74
2021/12/22 00:50:25;;;;;;;22.70;15.23;;;-0.70;99.90;;;;;;5018383;28;20228;-74
2021/12/22 00:52:51;;;;;;;24.27;16.07;;;-0.70;99.90;;;;;;5040045;28;20644;-75
2021/12/22 00:55:19;;;;;;;22.87;15.57;;;-0.80;99.90;;;;;;5050549;28;20203;-75
2021/12/22 00:57:46;;;;;;;20.97;14.90;;;-0.80;99.90;;;;;;5055346;28;20211;-74
2021/12/22 01:00:13;;;;;;;22.80;16.30;;;-0.80;99.90;;;;;;5085827;22;22053;-75
2021/12/22 01:02:39;;;;;;;21.77;15.07;;;-0.80;99.90;;;;;;5018506;28;20555;-74
2021/12/22 01:05:06;;;;;;;23.07;15.67;;;-0.80;99.90;;;;;;5035328;28;20655;-74
2021/12/22 01:07:32;;;;;;;23.23;16.10;;;-0.80;99.90;;;;;;5005947;28;20594;-74
2021/12/22 01:09:58;;;;;;;26.90;16.77;;;-0.70;99.90;;;;;;5016750;28;20208;-74
2021/12/22 01:12:23;;;;;;;22.27;16.80;;;-0.70;99.90;;;;;;5015351;28;20210;-75
2021/12/22 01:14:49;;;;;;;22.30;16.53;;;-0.80;99.90;;;;;;5013987;28;20237;-75
2021/12/22 01:17:16;;;;;;;24.10;17.07;;;-0.80;99.90;;;;;;5015305;28;20583;-75
2021/12/22 01:20:08;;;;;;;25.87;16.80;;;-0.80;99.90;;;;;;4997702;28;20200;-74
2021/12/22 01:23:01;;;;;;;18.47;14.30;;;-0.80;99.90;;;;;;5015234;28;20174;-74
2021/12/22 01:25:24;;;;;;;18.90;13.93;;;-0.80;99.90;;;;;;5015180;28;20675;-74
2021/12/22 01:27:49;;;;;;;23.10;14.90;;;-0.70;99.90;;;;;;5014995;28;20224;-75
2021/12/22 01:30:20;;;;;;;20.43;15.00;;;-0.70;99.90;;;;;;5015001;28;20198;-76
2021/12/22 01:32:47;;;;;;;18.17;14.60;;;-0.80;99.90;;;;;;5015333;28;20170;-75
2021/12/22 01:35:15;;;;;;;23.03;15.30;;;-0.80;99.90;;;;;;5015008;28;20213;-75
2021/12/22 01:37:41;;;;;;;18.90;14.00;;;-0.80;99.90;;;;;;5014906;28;20666;-76
2021/12/22 01:40:09;;;;;;;22.50;14.97;;;-0.80;99.90;;;;;;4997250;28;20174;-75
2021/12/22 01:42:35;;;;;;;21.47;15.07;;;-0.80;99.90;;;;;;4997259;28;20205;-75
2021/12/22 01:50:40;;;;;;;22.03;15.33;;;-0.70;99.90;;;;;;5015218;28;20744;-75
2021/12/22 01:53:21;;;;;;;20.60;15.10;;;-0.80;99.90;;;;;;5008416;28;20192;-75
2021/12/22 01:56:29;;;;;;;27.50;17.00;;;-0.90;99.90;;;;;;5014628;28;20183;-75
2021/12/22 01:58:57;;;;;;;27.20;16.27;;;-0.90;99.90;;;;;;5014149;28;20176;-75
2021/12/22 02:01:24;;;;;;;26.80;15.77;;;-0.90;99.90;;;;;;5014151;28;20279;-75
2021/12/22 02:03:52;;;;;;;24.53;15.97;;;-0.90;99.90;;;;;;5014508;28;20174;-75
2021/12/22 02:06:18;;;;;;;22.37;15.87;;;-0.90;99.90;;;;;;5014396;28;20179;-75
2021/12/22 02:08:45;;;;;;;20.90;15.70;;;-0.80;99.90;;;;;;5014189;28;20267;-74
2021/12/22 02:11:13;;;;;;;21.57;15.63;;;-0.90;99.90;;;;;;5014152;28;20300;-75
2021/12/22 02:13:42;;;;;;;21.63;16.13;;;-0.90;99.90;;;;;;4996546;28;20174;-75
2021/12/22 02:16:12;;;;;;;21.57;15.50;;;-0.90;99.90;;;;;;5014121;28;20196;-75
2021/12/22 02:18:49;;;;;;;23.97;17.07;;;-1.00;99.90;;;;;;5014164;28;20181;-75
2021/12/22 02:21:16;;;;;;;25.37;17.60;;;-1.00;99.90;;;;;;4996482;28;20202;-74
2021/12/22 02:23:43;;;;;;;24.43;16.63;;;-1.00;99.90;;;;;;5014053;28;20670;-75
2021/12/22 02:26:14;;;;;;;26.33;17.00;;;-1.00;99.90;;;;;;5013997;28;20177;-75
2021/12/22 02:28:45;;;;;;;26.47;17.80;;;-1.10;99.90;;;;;;4996411;28;20205;-75
2021/12/22 02:31:15;;;;;;;24.57;16.57;;;-1.10;99.90;;;;;;4996201;28;20693;-75
2021/12/22 02:33:43;;;;;;;23.33;16.13;;;-1.10;99.90;;;;;;5013926;28;20639;-75
2021/12/22 02:38:44;;;;;;;24.80;16.93;;;-1.00;99.90;;;;;;5013872;28;20175;-75
2021/12/22 02:41:14;;;;;;;26.40;17.07;;;-1.00;99.90;;;;;;5013614;28;20611;-76
2021/12/22 02:43:48;;;;;;;25.73;17.30;;;-1.00;99.90;;;;;;4996216;28;20183;-75
2021/12/22 02:46:21;;;;;;;24.00;16.63;;;-1.00;99.90;;;;;;5013698;28;20217;-76
2021/12/22 02:48:48;;;;;;;25.77;17.63;;;-1.00;99.90;;;;;;5013864;28;20204;-75
2021/12/22 02:51:14;;;;;;;25.40;17.67;;;-1.10;99.90;;;;;;5013468;28;20196;-76
2021/12/22 02:54:01;;;;;;;24.70;17.57;;;-1.00;99.90;;;;;;5008229;28;20201;-76
2021/12/22 02:56:38;;;;;;;25.30;16.17;;;-1.00;99.90;;;;;;5000807;28;20590;-73
2021/12/22 02:59:32;;;;;;;29.10;17.97;;;-1.00;99.90;;;;;;4990765;28;20178;-75
2021/12/22 03:04:42;;;;;;;25.97;18.37;;;-1.00;99.90;;;;;;4993315;28;20177;-75
2021/12/22 03:07:15;;;;;;;28.73;17.40;;;-0.90;99.90;;;;;;4994666;28;20257;-76
2021/12/22 03:09:42;;;;;;;24.93;17.77;;;-0.90;99.90;;;;;;4993865;28;20252;-76
2021/12/22 03:12:12;;;;;;;25.00;17.40;;;-0.90;99.90;;;;;;4976875;28;20570;-76
2021/12/22 03:14:38;;;;;;;24.80;17.20;;;-0.90;99.90;;;;;;4993075;28;20182;-76
2021/12/22 03:17:04;;;;;;;26.40;17.63;;;-1.00;99.90;;;;;;4992596;28;20647;-76
2021/12/22 03:19:34;;;;;;;25.07;17.90;;;-1.00;99.90;;;;;;4994893;28;20214;-77
2021/12/22 03:22:05;;;;;;;25.80;17.50;;;-1.00;99.90;;;;;;5004780;28;20205;-76
2021/12/22 03:24:34;;;;;;;27.37;19.20;;;-1.00;99.90;;;;;;4992091;28;20183;-76
2021/12/22 03:27:02;;;;;;;28.90;18.70;;;-0.90;99.90;;;;;;5008477;28;20186;-76
2021/12/22 03:29:30;;;;;;;28.33;19.83;;;-0.90;99.90;;;;;;5020136;28;20668;-76
2021/12/22 03:31:56;;;;;;;29.23;19.13;;;-1.00;99.90;;;;;;4993366;28;20289;-76
2021/12/22 03:34:21;;;;;;;28.40;18.60;;;-1.10;99.90;;;;;;5011174;28;20260;-76
2021/12/22 03:36:47;;;;;;;29.77;19.00;;;-1.10;99.90;;;;;;5013181;28;20189;-75
2021/12/22 03:39:14;;;;;;;29.30;18.60;;;-1.10;99.90;;;;;;4995339;28;20189;-76
2021/12/22 03:41:41;;;;;;;25.93;17.83;;;-1.00;99.90;;;;;;5012318;28;20200;-77
2021/12/22 03:44:08;;;;;;;22.90;16.73;;;-1.00;99.90;;;;;;5013030;28;20232;-75
2021/12/22 03:46:35;;;;;;;23.20;17.13;;;-1.00;99.90;;;;;;5012782;28;20182;-75
2021/12/22 03:49:00;;;;;;;28.13;18.97;;;-1.00;99.90;;;;;;5012523;28;20258;-76
2021/12/22 03:51:27;;;;;;;26.47;18.60;;;-1.00;99.90;;;;;;4995153;28;20198;-75
2021/12/22 03:53:53;;;;;;;26.63;18.43;;;-1.00;99.90;;;;;;5006415;28;20177;-75
2021/12/22 03:56:20;;;;;;;28.73;18.20;;;-1.00;99.90;;;;;;5013264;28;20194;-75
2021/12/22 03:58:46;;;;;;;29.93;19.20;;;-1.10;99.90;;;;;;5012916;28;20184;-75
2021/12/22 04:01:11;;;;;;;26.30;18.80;;;-1.00;99.90;;;;;;4994018;28;20223;-75
2021/12/22 04:03:39;;;;;;;29.57;19.87;;;-1.10;99.90;;;;;;5012517;28;20224;-75
2021/12/22 04:06:05;;;;;;;30.90;19.93;;;-1.10;99.90;;;;;;5012992;28;20208;-75
2021/12/22 04:08:31;;;;;;;28.43;18.73;;;-1.00;99.90;;;;;;5012758;28;20252;-75
2021/12/22 04:10:57;;;;;;;27.50;17.90;;;-1.00;99.90;;;;;;5012740;28;20682;-75
2021/12/22 04:13:22;;;;;;;26.27;17.53;;;-1.10;99.90;;;;;;5013207;28;20260;-75
2021/12/22 04:15:49;;;;;;;28.53;17.53;;;-1.00;99.90;;;;;;5012843;28;20253;-75
2021/12/22 04:18:15;;;;;;;27.03;18.13;;;-1.00;99.90;;;;;;5012731;28;20234;-75
2021/12/22 04:20:41;;;;;;;27.43;19.27;;;-1.00;99.90;;;;;;4994974;28;20211;-76
2021/12/22 04:23:07;;;;;;;28.43;18.23;;;-1.00;99.90;;;;;;5012841;28;20177;-75
2021/12/22 04:25:34;;;;;;;25.00;17.63;;;-1.00;99.90;;;;;;5012694;28;20241;-75
2021/12/22 04:28:07;;;;;;;27.77;18.70;;;-1.00;99.90;;;;;;5012575;28;20228;-74
2021/12/22 04:30:35;;;;;;;28.17;18.07;;;-1.00;99.90;;;;;;5012600;28;20209;-75
2021/12/22 04:33:02;;;;;;;28.80;19.27;;;-1.00;99.90;;;;;;5012575;28;20193;-75
2021/12/22 04:35:27;;;;;;;25.03;17.97;;;-1.00;99.90;;;;;;5016042;28;20204;-74
2021/12/22 04:37:53;;;;;;;29.30;19.10;;;-1.00;99.90;;;;;;4998830;28;20204;-75
2021/12/22 04:40:19;;;;;;;25.47;17.47;;;-1.00;99.90;;;;;;5016269;28;20551;-75
2021/12/22 04:42:45;;;;;;;28.33;18.67;;;-1.10;99.90;;;;;;5016234;28;20276;-75
2021/12/22 04:45:12;;;;;;;24.47;17.60;;;-1.00;99.90;;;;;;5015850;28;20174;-76
2021/12/22 04:47:38;;;;;;;28.53;18.67;;;-0.90;99.90;;;;;;5016014;28;20681;-75
2021/12/22 04:50:10;;;;;;;27.80;19.17;;;-1.00;99.90;;;;;;5015667;28;20658;-75
2021/12/22 04:52:50;;;;;;;48.87;24.40;;;-1.10;99.90;;;;;;5014233;28;20650;-76
2021/12/22 04:55:16;;;;;;;40.87;21.80;;;-1.10;99.90;;;;;;5010782;28;20164;-75
2021/12/22 04:57:42;;;;;;;28.67;18.47;;;-1.10;99.90;;;;;;5016176;28;20189;-75
2021/12/22 05:00:10;;;;;;;25.07;18.00;;;-1.10;99.90;;;;;;5015076;28;20180;-78
2021/12/22 05:02:36;;;;;;;27.30;17.80;;;-1.10;99.90;;;;;;5016956;28;20623;-75
2021/12/22 05:05:02;;;;;;;31.77;19.53;;;-1.20;99.90;;;;;;5015426;28;20180;-76
2021/12/22 05:07:28;;;;;;;33.83;20.30;;;-1.10;99.90;;;;;;4997192;28;20730;-76
2021/12/22 05:09:54;;;;;;;25.37;17.43;;;-1.10;99.90;;;;;;5014213;28;20280;-76
2021/12/22 05:12:19;;;;;;;31.67;19.07;;;-1.10;99.90;;;;;;5013709;28;20180;-76
2021/12/22 05:14:49;;;;;;;26.83;18.00;;;-1.10;99.90;;;;;;4993439;28;20208;-76
2021/12/22 05:17:26;;;;;;;28.30;18.37;;;-1.20;99.90;;;;;;4995864;28;20190;-75
2021/12/22 05:19:51;;;;;;;22.70;16.00;;;-1.20;99.90;;;;;;4994222;28;20677;-76
2021/12/22 05:22:17;;;;;;;38.03;20.77;;;-1.20;99.90;;;;;;4997161;28;20186;-76
2021/12/22 05:24:43;;;;;;;28.50;18.37;;;-1.20;99.90;;;;;;4994685;28;20191;-74
2021/12/22 05:27:11;;;;;;;28.97;18.57;;;-1.20;99.90;;;;;;4977359;28;20228;-74
2021/12/22 05:29:38;;;;;;;37.73;21.93;;;-1.30;99.90;;;;;;4995992;28;20229;-74
2021/12/22 05:32:04;;;;;;;28.50;19.00;;;-1.30;99.90;;;;;;4993824;28;20215;-74
2021/12/22 05:34:32;;;;;;;38.93;21.43;;;-1.30;99.90;;;;;;4996467;28;20224;-76
2021/12/22 05:36:57;;;;;;;30.73;19.37;;;-1.30;99.90;;;;;;4993845;28;20179;-74
2021/12/22 05:39:23;;;;;;;31.23;19.33;;;-1.30;99.90;;;;;;4998743;28;20685;-74
2021/12/22 05:41:48;;;;;;;52.57;22.33;;;-1.30;99.90;;;;;;4993302;28;20201;-74
2021/12/22 05:44:14;;;;;;;35.40;20.53;;;-1.30;99.90;;;;;;4996020;28;20264;-74
2021/12/22 05:46:40;;;;;;;26.90;18.40;;;-1.30;99.90;;;;;;5000493;28;20184;-73
2021/12/22 05:49:05;;;;;;;55.10;27.47;;;-1.30;99.90;;;;;;5014719;28;20203;-74
2021/12/22 05:51:34;;;;;;;44.77;23.07;;;-1.30;99.90;;;;;;5014559;28;20678;-73
2021/12/22 05:53:59;;;;;;;45.60;22.67;;;-1.30;99.90;;;;;;5008375;28;20177;-73
2021/12/22 05:56:30;;;;;;;83.17;34.37;;;-1.30;99.90;;;;;;5014441;28;20174;-74
2021/12/22 05:58:56;;;;;;;47.53;23.10;;;-1.30;99.90;;;;;;5014367;28;20178;-73
2021/12/22 06:01:22;;;;;;;120.53;45.10;;;-1.30;99.90;;;;;;5014045;28;20338;-74
2021/12/22 06:03:47;;;;;;;37.87;22.00;;;-1.40;99.90;;;;;;4997021;28;20705;-74
2021/12/22 06:06:13;;;;;;;28.80;19.07;;;-1.30;99.90;;;;;;4978113;28;20183;-76
2021/12/22 06:08:38;;;;;;;42.83;23.07;;;-1.40;99.90;;;;;;4996831;28;20214;-74
2021/12/22 06:11:04;;;;;;;33.90;20.80;;;-1.40;99.90;;;;;;4996573;28;20193;-73
2021/12/22 06:13:30;;;;;;;30.47;19.90;;;-1.40;99.90;;;;;;4996753;28;20268;-74
2021/12/22 06:15:56;;;;;;;27.83;19.17;;;-1.40;99.90;;;;;;4996363;28;20211;-74
2021/12/22 06:18:21;;;;;;;48.77;25.40;;;-1.50;99.90;;;;;;4987373;28;20182;-74
2021/12/22 06:20:47;;;;;;;36.83;20.67;;;-1.50;99.90;;;;;;5011613;28;20206;-74
2021/12/22 06:23:13;;;;;;;30.47;20.70;;;-1.50;99.90;;;;;;5014339;28;20182;-72
2021/12/22 06:25:39;;;;;;;28.70;19.10;;;-1.50;99.90;;;;;;5014053;28;20658;-74
2021/12/22 06:28:05;;;;;;;32.10;20.40;;;-1.60;99.90;;;;;;5013512;28;20202;-74
2021/12/22 06:30:31;;;;;;;49.43;26.83;;;-1.60;99.90;;;;;;5013832;28;20201;-74
2021/12/22 06:32:57;;;;;;;88.17;42.07;;;-1.60;99.90;;;;;;5007948;28;20649;-73
2021/12/22 06:35:23;;;;;;;30.60;19.67;;;-1.60;99.90;;;;;;5009429;28;20185;-73
2021/12/22 06:37:50;;;;;;;44.30;24.77;;;-1.60;99.90;;;;;;5011845;28;20177;-74
2021/12/22 06:40:16;;;;;;;33.57;21.00;;;-1.50;99.90;;;;;;4996074;28;20204;-74
2021/12/22 06:42:42;;;;;;;35.77;21.57;;;-1.50;99.90;;;;;;5013728;28;20185;-74
2021/12/22 06:45:09;;;;;;;33.90;21.67;;;-1.60;99.90;;;;;;4996952;28;20276;-74
2021/12/22 06:47:35;;;;;;;34.53;21.53;;;-1.60;99.90;;;;;;5008071;28;20180;-75
2021/12/22 06:50:01;;;;;;;33.50;20.60;;;-1.60;99.90;;;;;;4988640;28;20204;-74
2021/12/22 06:52:26;;;;;;;40.20;24.73;;;-1.60;99.90;;;;;;5010876;28;20172;-74
2021/12/22 06:54:52;;;;;;;35.03;21.23;;;-1.50;99.90;;;;;;5008677;28;20212;-75
2021/12/22 06:57:20;;;;;;;33.83;21.10;;;-1.60;99.90;;;;;;5010984;28;20193;-75
2021/12/22 06:59:47;;;;;;;33.37;21.00;;;-1.60;99.90;;;;;;5013401;28;20183;-75
2021/12/22 07:02:13;;;;;;;34.33;21.43;;;-1.60;99.90;;;;;;5069269;23;20270;-74
2021/12/22 07:04:38;;;;;;;35.43;22.13;;;-1.70;99.90;;;;;;5015791;28;20184;-74
2021/12/22 07:07:07;;;;;;;37.93;22.93;;;-1.60;99.90;;;;;;5016093;28;20526;-75
2021/12/22 07:09:33;;;;;;;34.70;20.90;;;-1.80;99.90;;;;;;5012434;28;20199;-74
2021/12/22 07:11:58;;;;;;;37.93;22.30;;;-1.70;99.90;;;;;;5016350;28;20281;-75
2021/12/22 07:14:24;;;;;;;36.67;21.30;;;-1.70;99.90;;;;;;5029625;28;20187;-76
2021/12/22 07:16:50;;;;;;;34.30;21.27;;;-1.60;99.90;;;;;;5027903;28;20171;-74
2021/12/22 07:19:16;;;;;;;36.07;22.20;;;-1.70;99.90;;;;;;5033244;28;20187;-76
2021/12/22 07:21:43;;;;;;;33.97;21.50;;;-1.60;99.90;;;;;;5015972;28;20197;-76
2021/12/22 07:24:09;;;;;;;36.37;21.73;;;-1.60;99.90;;;;;;5015776;28;20265;-75
2021/12/22 07:26:34;;;;;;;37.87;21.30;;;-1.60;99.90;;;;;;5033923;28;20273;-74
2021/12/22 07:29:00;;;;;;;34.17;21.43;;;-1.60;99.90;;;;;;5031995;28;20204;-76
2021/12/22 07:31:26;;;;;;;36.60;20.97;;;-1.60;99.90;;;;;;5005182;28;20614;-75
2021/12/22 07:34:16;;;;;;;37.17;21.33;;;-1.60;99.90;;;;;;5024720;28;20529;-75
2021/12/22 07:36:49;;;;;;;34.77;21.23;;;-1.60;99.90;;;;;;4997819;28;20202;-75
2021/12/22 07:39:15;;;;;;;32.83;20.53;;;-1.50;99.90;;;;;;5030680;28;20173;-76
2021/12/22 07:41:41;;;;;;;29.57;19.70;;;-1.60;99.90;;;;;;5005112;28;20254;-75
2021/12/22 07:44:06;;;;;;;34.20;19.47;;;-1.60;99.90;;;;;;5030041;28;20180;-74
2021/12/22 07:46:32;;;;;;;34.37;20.43;;;-1.60;99.90;;;;;;5026004;28;20183;-74
2021/12/22 07:48:58;;;;;;;31.93;19.97;;;-1.60;99.90;;;;;;5027497;28;20218;-75
2021/12/22 07:51:23;;;;;;;32.40;19.53;;;-1.60;99.90;;;;;;5020918;28;20310;-75
2021/12/22 07:53:49;;;;;;;30.60;18.93;;;-1.60;99.90;;;;;;5028970;28;20182;-74
2021/12/22 07:56:15;;;;;;;32.97;20.43;;;-1.60;99.90;;;;;;5028820;28;20185;-74
2021/12/22 07:58:41;;;;;;;32.73;20.27;;;-1.50;99.90;;;;;;5016007;28;20192;-74
2021/12/22 08:01:06;;;;;;;32.33;20.33;;;-1.40;99.90;;;;;;5009827;28;20263;-73
2021/12/22 08:03:32;;;;;;;36.37;21.27;;;-1.40;99.90;;;;;;5015118;28;20564;-76
2021/12/22 08:05:58;;;;;;;35.47;20.87;;;-1.30;99.90;;;;;;5030910;28;20184;-75
2021/12/22 08:08:23;;;;;;;33.67;21.07;;;-1.30;99.90;;;;;;5027535;28;20284;-75
2021/12/22 08:10:49;;;;;;;36.27;21.80;;;-1.30;99.90;;;;;;5024835;28;20594;-75
2021/12/22 08:13:15;;;;;;;36.33;21.60;;;-1.30;99.90;;;;;;5010361;28;20220;-75
2021/12/22 08:15:42;;;;;;;32.23;20.60;;;-1.30;99.90;;;;;;5013273;28;20537;-76
2021/12/22 08:18:07;;;;;;;33.73;20.77;;;-1.40;99.90;;;;;;5027438;28;20213;-75
2021/12/22 08:20:33;;;;;;;31.77;20.63;;;-1.30;99.90;;;;;;5017841;28;20205;-75
2021/12/22 08:22:59;;;;;;;32.20;20.50;;;-1.30;99.90;;;;;;5016050;28;20207;-75
2021/12/22 08:25:24;;;;;;;35.13;21.17;;;-1.20;99.90;;;;;;5024961;28;20286;-75
2021/12/22 08:27:50;;;;;;;34.70;21.00;;;-1.20;99.90;;;;;;5013759;28;20291;-74
2021/12/22 08:30:16;;;;;;;33.47;20.80;;;-1.10;99.90;;;;;;5027796;28;20197;-75
2021/12/22 08:32:42;;;;;;;33.70;20.40;;;-1.20;99.90;;;;;;5013142;28;20212;-74
2021/12/22 08:35:11;;;;;;;36.67;21.47;;;-1.20;99.90;;;;;;5014132;28;20663;-76
2021/12/22 08:40:23;;;;;;;35.13;20.47;;;-1.20;99.90;;;;;;5031173;28;20183;-74
2021/12/22 08:42:50;;;;;;;32.33;20.30;;;-1.20;99.90;;;;;;5016429;28;20749;-75
2021/12/22 08:45:17;;;;;;;37.47;22.00;;;-1.20;99.90;;;;;;5030447;28;20189;-75
2021/12/22 08:47:43;;;;;;;36.73;21.60;;;-1.30;99.90;;;;;;5015068;28;20260;-75
2021/12/22 08:50:11;;;;;;;38.60;22.47;;;-1.40;99.90;;;;;;5032201;28;20233;-75
2021/12/22 08:52:37;;;;;;;36.17;21.13;;;-1.40;99.90;;;;;;5005851;28;20274;-74
2021/12/22 08:55:03;;;;;;;36.57;20.30;;;-1.30;99.90;;;;;;5018337;28;20644;-75
2021/12/22 08:57:29;;;;;;;40.17;21.50;;;-1.30;99.90;;;;;;5011551;28;20191;-74
2021/12/22 08:59:55;;;;;;;37.87;21.10;;;-1.30;99.90;;;;;;5015132;28;20724;-77
2021/12/22 09:02:21;;;;;;;33.53;20.27;;;-1.20;99.90;;;;;;5031641;28;20212;-75
2021/12/22 09:04:47;;;;;;;36.67;21.17;;;-1.30;99.90;;;;;;5015063;28;20215;-75
2021/12/22 09:07:13;;;;;;;38.57;23.07;;;-1.30;99.90;;;;;;5030714;28;20205;-74
2021/12/22 09:09:39;;;;;;;48.43;27.17;;;-1.20;99.90;;;;;;5030647;28;20212;-74
2021/12/22 09:12:06;;;;;;;59.80;33.27;;;-1.20;99.90;;;;;;5023825;28;20276;-75
2021/12/22 09:14:32;;;;;;;36.80;22.07;;;-1.20;99.90;;;;;;5016176;28;20188;-74
2021/12/22 09:16:58;;;;;;;36.17;21.97;;;-1.20;99.90;;;;;;5025794;28;20180;-74
2021/12/22 09:19:24;;;;;;;37.37;21.47;;;-1.20;99.90;;;;;;5014755;28;20181;-74
2021/12/22 09:21:51;;;;;;;40.07;22.77;;;-1.30;99.90;;;;;;5029027;28;20231;-74
2021/12/22 09:24:17;;;;;;;34.23;20.93;;;-1.30;99.90;;;;;;5030508;28;20184;-75
2021/12/22 09:26:43;;;;;;;37.00;21.33;;;-1.40;99.90;;;;;;5026453;28;20685;-75
2021/12/22 09:29:09;;;;;;;34.47;21.60;;;-1.50;99.90;;;;;;5010254;28;20212;-74
2021/12/22 09:31:35;;;;;;;37.07;20.97;;;-1.50;99.90;;;;;;5029980;28;20196;-74
2021/12/22 09:34:01;;;;;;;38.17;21.87;;;-1.50;99.90;;;;;;5025838;28;20705;-73
2021/12/22 09:36:27;;;;;;;39.07;23.20;;;-1.40;99.90;;;;;;5029787;28;20201;-74
2021/12/22 09:38:52;;;;;;;44.47;22.70;;;-1.30;99.90;;;;;;5028475;28;20208;-74
2021/12/22 09:41:18;;;;;;;43.87;23.00;;;-1.30;99.90;;;;;;5021563;28;20275;-73
2021/12/22 09:43:44;;;;;;;38.37;21.97;;;-1.30;99.90;;;;;;5025085;28;20202;-74
2021/12/22 09:46:14;;;;;;;41.70;21.77;;;-1.30;99.90;;;;;;5024339;28;20191;-76
2021/12/22 09:53:44;;;;;;;40.50;22.83;;;-1.30;99.90;;;;;;5020772;28;20191;-75
2021/12/22 09:56:11;;;;;;;44.73;23.63;;;-1.20;99.90;;;;;;5021278;28;20168;-75
2021/12/22 09:58:39;;;;;;;38.17;22.07;;;-1.10;99.90;;;;;;5010516;28;20212;-74
2021/12/22 10:01:05;;;;;;;42.77;26.40;;;-1.20;99.90;;;;;;5026828;28;20228;-74
2021/12/22 10:03:31;;;;;;;37.70;21.80;;;-1.10;99.90;;;;;;5029714;28;20185;-75
2021/12/22 10:05:57;;;;;;;40.47;21.17;;;-1.10;99.90;;;;;;5027110;28;20179;-75
2021/12/22 10:08:25;;;;;;;40.00;21.97;;;-1.10;99.90;;;;;;5010486;28;20229;-75
2021/12/22 10:11:01;;;;;;;37.17;22.30;;;-1.10;99.90;;;;;;5027405;28;20234;-75
2021/12/22 10:13:30;;;;;;;39.83;23.47;;;-1.00;99.90;;;;;;5025830;28;20179;-74
2021/12/22 10:15:57;;;;;;;43.57;22.90;;;-1.10;99.90;;;;;;5012710;28;20188;-75
2021/12/22 10:18:28;;;;;;;42.30;23.80;;;-1.00;99.90;;;;;;5006176;28;20177;-75
2021/12/22 10:21:11;;;;;;;60.33;32.37;;;-1.10;99.90;;;;;;5022990;28;20203;-75
2021/12/22 10:23:50;;;;;;;42.70;21.87;;;-1.10;99.90;;;;;;5025405;28;20184;-74
2021/12/22 10:26:19;;;;;;;38.97;22.57;;;-1.10;99.90;;;;;;5028407;28;20602;-74
2021/12/22 10:28:54;;;;;;;44.97;22.73;;;-1.00;99.90;;;;;;5025442;28;20210;-74
2021/12/22 10:31:41;;;;;;;52.70;26.97;;;-1.00;99.90;;;;;;5023345;28;20231;-74
2021/12/22 10:34:18;;;;;;;34.73;21.47;;;-1.00;99.90;;;;;;5011595;28;20189;-75
2021/12/22 10:36:50;;;;;;;43.03;24.13;;;-1.00;99.90;;;;;;5025334;28;20950;-74
2021/12/22 10:39:33;;;;;;;40.60;22.13;;;-1.10;99.90;;;;;;5025513;28;20553;-74
2021/12/22 10:42:05;;;;;;;39.17;23.80;;;-1.10;99.90;;;;;;5027137;28;20223;-75
2021/12/22 10:44:39;;;;;;;46.03;25.53;;;-1.10;99.90;;;;;;5027004;28;20253;-75
2021/12/22 10:47:19;;;;;;;41.90;24.10;;;-1.10;99.90;;;;;;5012488;28;20189;-75
2021/12/22 10:50:03;;;;;;;36.80;21.90;;;-1.00;99.90;;;;;;5008199;28;20703;-75
2021/12/22 10:52:30;;;;;;;39.20;23.10;;;-1.10;99.90;;;;;;5013915;28;20197;-74
2021/12/22 10:55:08;;;;;;;42.50;24.53;;;-1.10;99.90;;;;;;5028986;28;20178;-74
2021/12/22 10:57:37;;;;;;;41.43;22.90;;;-1.10;99.90;;;;;;5030221;28;20573;-74
2021/12/22 11:00:16;;;;;;;42.10;23.97;;;-1.00;99.90;;;;;;5021361;28;20187;-74
2021/12/22 11:02:49;;;;;;;41.33;23.70;;;-0.80;99.90;;;;;;5028943;28;20267;-74
2021/12/22 11:05:26;;;;;;;37.83;23.40;;;-0.70;99.90;;;;;;5026190;28;20205;-74
2021/12/22 11:07:52;;;;;;;40.63;23.07;;;-0.70;99.90;;;;;;5030085;28;20187;-74
2021/12/22 11:10:24;;;;;;;37.50;21.87;;;-0.70;99.90;;;;;;5028124;28;20218;-74
2021/12/22 11:13:03;;;;;;;42.97;23.50;;;-0.70;99.90;;;;;;5029815;28;20771;-74
2021/12/22 11:15:29;;;;;;;40.13;22.57;;;-0.70;99.90;;;;;;5007909;28;20658;-75
2021/12/22 11:17:55;;;;;;;39.63;22.87;;;-0.70;99.90;;;;;;5004649;28;20188;-74
2021/12/22 11:20:25;;;;;;;39.90;22.63;;;-0.80;99.90;;;;;;5027548;28;20181;-75
2021/12/22 11:23:10;;;;;;;38.23;22.83;;;-0.80;99.90;;;;;;5027360;28;20209;-75
2021/12/22 11:25:37;;;;;;;38.87;22.20;;;-0.70;99.90;;;;;;5020623;28;20224;-75
2021/12/22 11:28:03;;;;;;;41.27;22.30;;;-0.80;99.90;;;;;;5014259;28;20186;-75
2021/12/22 11:30:29;;;;;;;39.73;23.43;;;-0.70;99.90;;;;;;5008528;28;20211;-74
2021/12/22 11:32:55;;;;;;;38.57;22.80;;;-0.70;99.90;;;;;;5021283;28;20236;-75
2021/12/22 11:35:22;;;;;;;38.73;23.13;;;-0.60;99.90;;;;;;5030164;28;20232;-74
2021/12/22 11:37:49;;;;;;;41.57;24.03;;;-0.70;99.90;;;;;;5021505;28;20185;-75
2021/12/22 11:40:17;;;;;;;41.17;24.07;;;-0.70;99.90;;;;;;5001696;28;20185;-75
2021/12/22 11:42:43;;;;;;;39.37;22.53;;;-0.60;99.90;;;;;;5027521;28;20719;-75
2021/12/22 11:45:20;;;;;;;38.57;23.27;;;-0.30;99.90;;;;;;5034760;28;20177;-74
2021/12/22 11:47:52;;;;;;;36.77;22.47;;;-0.50;99.90;;;;;;5032210;28;20182;-74
2021/12/22 11:50:26;;;;;;;41.57;22.47;;;-0.40;99.90;;;;;;5006728;28;20558;-76
2021/12/22 11:52:59;;;;;;;37.33;22.23;;;-0.30;99.90;;;;;;5033905;28;20747;-74
2021/12/22 11:55:45;;;;;;;42.30;23.27;;;-0.30;99.90;;;;;;5029291;28;20182;-75
2021/12/22 11:58:21;;;;;;;39.80;23.83;;;-0.50;99.90;;;;;;5029868;28;20223;-74
2021/12/22 12:00:55;;;;;;;38.03;22.20;;;-0.50;99.90;;;;;;5029809;28;20189;-74
2021/12/22 12:03:32;;;;;;;36.23;21.67;;;-0.40;99.90;;;;;;5016633;28;20182;-74
2021/12/22 12:06:09;;;;;;;36.70;22.43;;;-0.30;99.90;;;;;;5028602;28;20173;-74
2021/12/22 12:08:38;;;;;;;37.50;22.83;;;-0.30;99.90;;;;;;5031485;28;20235;-75
2021/12/22 12:11:06;;;;;;;40.27;24.07;;;-0.30;99.90;;;;;;5024712;28;20203;-75
2021/12/22 12:21:56;;;;;;;40.10;23.00;;;-0.30;99.90;;;;;;5029998;28;20299;-75
2021/12/22 12:24:48;;;;;;;40.23;24.10;;;-0.20;99.90;;;;;;5029439;28;20182;-75
2021/12/22 12:27:37;;;;;;;40.37;22.80;;;-0.10;99.90;;;;;;5025361;28;20190;-75
2021/12/22 12:30:10;;;;;;;35.37;22.33;;;-0.10;99.90;;;;;;5010913;28;20216;-74
2021/12/22 12:32:39;;;;;;;41.20;23.77;;;0.30;99.90;;;;;;5026192;28;20299;-75
2021/12/22 12:35:20;;;;;;;36.83;22.70;;;-0.10;99.90;;;;;;5026927;28;20224;-74
2021/12/22 12:38:00;;;;;;;36.30;22.60;;;0.00;99.90;;;;;;5015755;28;20705;-74
2021/12/22 12:46:24;;;;;;;39.70;23.27;;;0.00;99.90;;;;;;5031299;28;20189;-75
2021/12/22 12:48:54;;;;;;;39.67;24.20;;;0.00;99.90;;;;;;5028143;28;20247;-75
2021/12/22 12:51:30;;;;;;;37.17;22.97;;;-0.10;99.90;;;;;;5025804;28;20381;-75
2021/12/22 12:54:17;;;;;;;40.40;23.53;;;-0.20;99.90;;;;;;5023398;28;20186;-75
2021/12/22 12:56:45;;;;;;;47.70;26.20;;;-0.30;99.90;;;;;;5023937;28;20181;-75
2021/12/22 12:59:13;;;;;;;54.50;30.60;;;-0.20;99.90;;;;;;5012674;28;20190;-74
2021/12/22 13:01:50;;;;;;;44.80;24.13;;;-0.30;99.90;;;;;;5057388;23;20225;-75
2021/12/22 13:04:29;;;;;;;40.57;22.97;;;-0.30;99.90;;;;;;5030517;28;20174;-74
2021/12/22 13:07:04;;;;;;;44.30;24.37;;;-0.30;99.90;;;;;;5033333;28;20177;-76
2021/12/22 13:09:46;;;;;;;44.77;26.00;;;-0.60;99.90;;;;;;5025311;28;20198;-75